Terminal Aerodrome Forecast
Issued by NWS

Home | Current Version | Previous Version | Text Only | Print | Product List | Glossary On
Versions: 1 2 3 4 5 6 7 8 9 10 11 12 13 14 15 16 17 18 19 20 21 22 23 24 25 26 27 28 29 30
000
FTUS43 KDTX 071956 AAA
TAFYIP
TAF AMD
KYIP 071956Z 0720/0818 32010KT P6SM SCT008 BKN018 OVC040
      TEMPO 0720/0721 5SM -SHRA BKN008 BKN012 OVC040
     FM072300 01010KT P6SM FEW015 BKN025 BKN040
     FM080400 02006KT P6SM SCT030=

USA.gov is the U.S. government's official web portal to all federal, state and local government web resources and services.